sensor_id;sensor_type;location;lat;lon;timestamp;pressure;altitude;pressure_sealevel;temperature;humidity
6530;BME280;3298;42.688;23.366;2023-04-02T00:00:09;51753.94;;;-145.06;55.14
6530;BME280;3298;42.688;23.366;2023-04-02T00:02:45;51733.47;;;-145.06;55.35
6530;BME280;3298;42.688;23.366;2023-04-02T00:08:25;51749.84;;;-145.06;55.14
6530;BME280;3298;42.688;23.366;2023-04-02T00:10:55;51743.69;;;-145.06;55.09
6530;BME280;3298;42.688;23.366;2023-04-02T00:13:29;51741.66;;;-145.06;54.54
6530;BME280;3298;42.688;23.366;2023-04-02T00:15:58;51764.16;;;-145.06;54.63
6530;BME280;3298;42.688;23.366;2023-04-02T00:18:28;51741.66;;;-145.06;54.11
6530;BME280;3298;42.688;23.366;2023-04-02T00:21:09;51749.84;;;-145.06;53.99
6530;BME280;3298;42.688;23.366;2023-04-02T00:23:40;51735.50;;;-145.06;53.82
6530;BME280;3298;42.688;23.366;2023-04-02T00:26:23;51758.03;;;-145.06;54.04
6530;BME280;3298;42.688;23.366;2023-04-02T00:28:51;51749.84;;;-145.06;54.12
6530;BME280;3298;42.688;23.366;2023-04-02T00:31:19;51753.94;;;-145.06;54.06
6530;BME280;3298;42.688;23.366;2023-04-02T00:33:47;51749.84;;;-145.06;55.62
6530;BME280;3298;42.688;23.366;2023-04-02T00:36:14;51758.03;;;-145.06;58.74
6530;BME280;3298;42.688;23.366;2023-04-02T00:38:43;51733.47;;;-145.06;59.93
6530;BME280;3298;42.688;23.366;2023-04-02T00:41:14;51747.78;;;-145.06;61.77
6530;BME280;3298;42.688;23.366;2023-04-02T00:43:45;51764.16;;;-145.06;62.63
6530;BME280;3298;42.688;23.366;2023-04-02T00:46:17;51729.38;;;-145.06;63.38
6530;BME280;3298;42.688;23.366;2023-04-02T00:48:49;51745.75;;;-145.06;63.74
6530;BME280;3298;42.688;23.366;2023-04-02T00:51:22;51753.94;;;-145.06;64.03
6530;BME280;3298;42.688;23.366;2023-04-02T00:53:54;51725.28;;;-145.06;63.78
6530;BME280;3298;42.688;23.366;2023-04-02T00:56:24;51733.47;;;-145.06;63.44
6530;BME280;3298;42.688;23.366;2023-04-02T00:58:54;51721.19;;;-145.06;64.04
6530;BME280;3298;42.688;23.366;2023-04-02T01:01:24;51739.59;;;-145.06;64.90
6530;BME280;3298;42.688;23.366;2023-04-02T01:03:56;51729.38;;;-145.06;65.45
6530;BME280;3298;42.688;23.366;2023-04-02T01:19:11;51758.03;;;-145.06;67.90
6530;BME280;3298;42.688;23.366;2023-04-02T01:21:52;51745.75;;;-145.06;68.18
6530;BME280;3298;42.688;23.366;2023-04-02T01:24:22;51733.47;;;-145.06;68.54
6530;BME280;3298;42.688;23.366;2023-04-02T01:26:55;51733.47;;;-145.06;68.45
6530;BME280;3298;42.688;23.366;2023-04-02T01:29:26;51755.97;;;-145.06;68.08
6530;BME280;3298;42.688;23.366;2023-04-02T01:31:57;51713.00;;;-145.06;67.89
6530;BME280;3298;42.688;23.366;2023-04-02T01:34:26;51729.38;;;-145.06;66.96
6530;BME280;3298;42.688;23.366;2023-04-02T01:37:03;51739.59;;;-145.06;66.82
6530;BME280;3298;42.688;23.366;2023-04-02T01:39:42;51731.41;;;-145.06;66.51
6530;BME280;3298;42.688;23.366;2023-04-02T01:42:16;51749.84;;;-145.06;66.05
6530;BME280;3298;42.688;23.366;2023-04-02T01:44:47;51747.78;;;-145.06;65.80
6530;BME280;3298;42.688;23.366;2023-04-02T01:47:18;51733.47;;;-145.06;65.88
6530;BME280;3298;42.688;23.366;2023-04-02T01:49:45;51788.72;;;-145.06;65.92
6530;BME280;3298;42.688;23.366;2023-04-02T01:52:15;51721.19;;;-145.06;65.59
6530;BME280;3298;42.688;23.366;2023-04-02T01:54:43;51753.94;;;-145.06;65.94
6530;BME280;3298;42.688;23.366;2023-04-02T01:57:12;51737.56;;;-145.06;66.11
6530;BME280;3298;42.688;23.366;2023-04-02T01:59:39;51717.09;;;-145.06;65.73
6530;BME280;3298;42.688;23.366;2023-04-02T02:02:10;51731.41;;;-145.06;65.51
6530;BME280;3298;42.688;23.366;2023-04-02T02:04:38;51758.03;;;-145.06;65.67
6530;BME280;3298;42.688;23.366;2023-04-02T02:07:12;51749.84;;;-145.06;65.63
6530;BME280;3298;42.688;23.366;2023-04-02T02:09:40;51741.66;;;-145.06;65.83
6530;BME280;3298;42.688;23.366;2023-04-02T02:12:09;51737.56;;;-145.06;66.25
6530;BME280;3298;42.688;23.366;2023-04-02T02:14:38;51731.41;;;-145.06;66.35
6530;BME280;3298;42.688;23.366;2023-04-02T02:17:14;51760.06;;;-145.06;66.41
6530;BME280;3298;42.688;23.366;2023-04-02T02:19:43;51745.75;;;-145.06;65.69
6530;BME280;3298;42.688;23.366;2023-04-02T02:22:27;51758.03;;;-145.06;65.43
6530;BME280;3298;42.688;23.366;2023-04-02T02:24:55;51719.13;;;-145.06;65.82
6530;BME280;3298;42.688;23.366;2023-04-02T02:30:31;51729.38;;;-145.06;65.99
6530;BME280;3298;42.688;23.366;2023-04-02T02:33:04;51737.56;;;-145.06;64.66
6530;BME280;3298;42.688;23.366;2023-04-02T02:35:35;51737.56;;;-145.06;64.17
6530;BME280;3298;42.688;23.366;2023-04-02T02:38:24;51758.03;;;-145.06;64.92
6530;BME280;3298;42.688;23.366;2023-04-02T02:40:55;51762.13;;;-145.06;65.60
6530;BME280;3298;42.688;23.366;2023-04-02T02:43:25;51749.84;;;-145.06;66.04
6530;BME280;3298;42.688;23.366;2023-04-02T02:45:54;51749.84;;;-145.06;66.58
6530;BME280;3298;42.688;23.366;2023-04-02T02:48:31;51735.50;;;-145.06;67.15
6530;BME280;3298;42.688;23.366;2023-04-02T02:51:01;51715.03;;;-145.06;68.50
6530;BME280;3298;42.688;23.366;2023-04-02T02:53:30;51737.56;;;-145.06;69.26
6530;BME280;3298;42.688;23.366;2023-04-02T02:55:58;51741.66;;;-145.06;68.81
6530;BME280;3298;42.688;23.366;2023-04-02T02:58:29;51737.56;;;-145.06;69.07
6530;BME280;3298;42.688;23.366;2023-04-02T03:00:57;51725.28;;;-145.06;68.84
6530;BME280;3298;42.688;23.366;2023-04-02T03:03:28;51760.06;;;-145.06;68.48
6530;BME280;3298;42.688;23.366;2023-04-02T03:05:59;51737.56;;;-145.06;68.48
6530;BME280;3298;42.688;23.366;2023-04-02T03:08:32;51753.94;;;-145.06;68.39
6530;BME280;3298;42.688;23.366;2023-04-02T03:11:04;51733.47;;;-145.06;68.74
6530;BME280;3298;42.688;23.366;2023-04-02T03:13:34;51768.25;;;-145.06;68.65
6530;BME280;3298;42.688;23.366;2023-04-02T03:16:09;51762.13;;;-145.06;68.79
6530;BME280;3298;42.688;23.366;2023-04-02T03:18:43;51772.34;;;-145.06;68.57
6530;BME280;3298;42.688;23.366;2023-04-02T03:21:21;51749.84;;;-145.06;69.19
6530;BME280;3298;42.688;23.366;2023-04-02T03:23:54;51758.03;;;-145.06;68.97
6530;BME280;3298;42.688;23.366;2023-04-02T03:26:26;51721.19;;;-145.06;69.28
6530;BME280;3298;42.688;23.366;2023-04-02T03:28:58;51747.78;;;-145.06;69.59
6530;BME280;3298;42.688;23.366;2023-04-02T03:31:31;51749.84;;;-145.06;70.09
6530;BME280;3298;42.688;23.366;2023-04-02T03:34:03;51737.56;;;-145.06;70.11
6530;BME280;3298;42.688;23.366;2023-04-02T03:36:37;51735.50;;;-145.06;70.92
6530;BME280;3298;42.688;23.366;2023-04-02T03:39:13;51737.56;;;-145.06;70.87
6530;BME280;3298;42.688;23.366;2023-04-02T03:41:44;51751.88;;;-145.06;71.40
6530;BME280;3298;42.688;23.366;2023-04-02T03:44:19;51727.31;;;-145.06;71.71
6530;BME280;3298;42.688;23.366;2023-04-02T03:46:51;51743.69;;;-145.06;72.47
6530;BME280;3298;42.688;23.366;2023-04-02T03:49:29;51733.47;;;-145.06;72.39
6530;BME280;3298;42.688;23.366;2023-04-02T03:52:02;51739.59;;;-145.06;71.61
6530;BME280;3298;42.688;23.366;2023-04-02T03:54:30;51739.59;;;-145.06;71.20
6530;BME280;3298;42.688;23.366;2023-04-02T03:56:58;51727.31;;;-145.06;71.03
6530;BME280;3298;42.688;23.366;2023-04-02T03:59:31;51729.38;;;-145.06;71.18
6530;BME280;3298;42.688;23.366;2023-04-02T04:02:06;51755.97;;;-145.06;70.85
6530;BME280;3298;42.688;23.366;2023-04-02T04:04:39;51751.88;;;-145.06;69.38
6530;BME280;3298;42.688;23.366;2023-04-02T04:07:13;51733.47;;;-145.06;68.84
6530;BME280;3298;42.688;23.366;2023-04-02T04:09:44;51745.75;;;-145.06;68.56
6530;BME280;3298;42.688;23.366;2023-04-02T04:12:20;51727.31;;;-145.06;68.26
6530;BME280;3298;42.688;23.366;2023-04-02T04:14:52;51749.84;;;-145.06;69.03
6530;BME280;3298;42.688;23.366;2023-04-02T04:17:26;51798.97;;;-145.06;69.54
6530;BME280;3298;42.688;23.366;2023-04-02T04:19:59;51739.59;;;-145.06;70.27
6530;BME280;3298;42.688;23.366;2023-04-02T04:22:32;51735.50;;;-145.06;70.98
6530;BME280;3298;42.688;23.366;2023-04-02T04:25:01;51727.31;;;-145.06;70.20
6530;BME280;3298;42.688;23.366;2023-04-02T04:27:30;51733.47;;;-145.06;70.43
6530;BME280;3298;42.688;23.366;2023-04-02T04:30:03;51723.22;;;-145.06;71.23
6530;BME280;3298;42.688;23.366;2023-04-02T04:32:33;51737.56;;;-145.06;71.04
6530;BME280;3298;42.688;23.366;2023-04-02T04:35:07;51731.41;;;-145.06;72.11
6530;BME280;3298;42.688;23.366;2023-04-02T04:37:42;51753.94;;;-145.06;72.41
6530;BME280;3298;42.688;23.366;2023-04-02T04:40:18;51770.31;;;-145.06;71.48
6530;BME280;3298;42.688;23.366;2023-04-02T04:42:47;51739.59;;;-145.06;72.02
6530;BME280;3298;42.688;23.366;2023-04-02T04:45:29;51725.28;;;-145.06;72.15
6530;BME280;3298;42.688;23.366;2023-04-02T04:48:03;51749.84;;;-145.06;70.67
6530;BME280;3298;42.688;23.366;2023-04-02T04:50:36;51745.75;;;-145.06;70.55
6530;BME280;3298;42.688;23.366;2023-04-02T04:53:05;51745.75;;;-145.06;70.71
6530;BME280;3298;42.688;23.366;2023-04-02T04:55:36;51745.75;;;-145.06;70.78
6530;BME280;3298;42.688;23.366;2023-04-02T04:58:10;51739.59;;;-145.06;69.93
6530;BME280;3298;42.688;23.366;2023-04-02T05:00:45;51721.19;;;-145.06;69.59
6530;BME280;3298;42.688;23.366;2023-04-02T05:03:21;51743.69;;;-145.06;69.24
6530;BME280;3298;42.688;23.366;2023-04-02T05:05:53;51758.03;;;-145.06;68.50
6530;BME280;3298;42.688;23.366;2023-04-02T05:08:29;51758.03;;;-145.06;68.39
6530;BME280;3298;42.688;23.366;2023-04-02T05:11:00;51745.75;;;-145.06;68.19
6530;BME280;3298;42.688;23.366;2023-04-02T05:13:33;51717.09;;;-145.06;67.40
6530;BME280;3298;42.688;23.366;2023-04-02T05:16:08;51735.50;;;-145.06;66.86
6530;BME280;3298;42.688;23.366;2023-04-02T05:18:40;51747.78;;;-145.06;65.20
6530;BME280;3298;42.688;23.366;2023-04-02T05:21:17;51735.50;;;-145.06;64.81
6530;BME280;3298;42.688;23.366;2023-04-02T05:23:49;51749.84;;;-145.06;64.46
6530;BME280;3298;42.688;23.366;2023-04-02T05:26:22;51766.22;;;-145.06;64.50
6530;BME280;3298;42.688;23.366;2023-04-02T05:28:54;51745.75;;;-145.06;64.55
6530;BME280;3298;42.688;23.366;2023-04-02T05:31:26;51762.13;;;-145.06;65.18
6530;BME280;3298;42.688;23.366;2023-04-02T05:33:55;51721.19;;;-145.06;63.84
6530;BME280;3298;42.688;23.366;2023-04-02T05:36:26;51735.50;;;-145.06;63.20
6530;BME280;3298;42.688;23.366;2023-04-02T05:38:55;51745.75;;;-145.06;61.99
6530;BME280;3298;42.688;23.366;2023-04-02T05:41:25;51749.84;;;-145.06;60.67
6530;BME280;3298;42.688;23.366;2023-04-02T05:44:05;51749.84;;;-145.06;60.35
6530;BME280;3298;42.688;23.366;2023-04-02T05:46:35;51741.66;;;-145.06;60.85
6530;BME280;3298;42.688;23.366;2023-04-02T05:49:05;51729.38;;;-145.06;60.11
6530;BME280;3298;42.688;23.366;2023-04-02T05:51:40;51723.22;;;-145.06;59.91
6530;BME280;3298;42.688;23.366;2023-04-02T05:54:17;51755.97;;;-145.06;59.14
6530;BME280;3298;42.688;23.366;2023-04-02T05:56:51;51741.66;;;-145.06;58.49
6530;BME280;3298;42.688;23.366;2023-04-02T05:59:23;51772.34;;;-145.06;58.04
6530;BME280;3298;42.688;23.366;2023-04-02T06:01:54;51745.75;;;-145.06;58.16
6530;BME280;3298;42.688;23.366;2023-04-02T06:04:27;51768.25;;;-145.06;57.56
6530;BME280;3298;42.688;23.366;2023-04-02T06:07:03;51755.97;;;-145.06;57.69
6530;BME280;3298;42.688;23.366;2023-04-02T06:09:39;51745.75;;;-145.06;57.41
6530;BME280;3298;42.688;23.366;2023-04-02T06:12:27;51755.97;;;-145.06;57.62
6530;BME280;3298;42.688;23.366;2023-04-02T06:14:57;51735.50;;;-145.06;56.72
6530;BME280;3298;42.688;23.366;2023-04-02T06:17:23;51713.00;;;-145.06;56.17
6530;BME280;3298;42.688;23.366;2023-04-02T06:19:53;51745.75;;;-145.06;55.73
6530;BME280;3298;42.688;23.366;2023-04-02T06:22:31;51762.13;;;-145.06;55.54
6530;BME280;3298;42.688;23.366;2023-04-02T06:25:04;51753.94;;;-145.06;55.23
6530;BME280;3298;42.688;23.366;2023-04-02T06:27:33;51751.88;;;-145.06;54.77
6530;BME280;3298;42.688;23.366;2023-04-02T06:30:04;51778.50;;;-145.06;54.57
6530;BME280;3298;42.688;23.366;2023-04-02T06:32:39;51758.03;;;-145.06;54.57
6530;BME280;3298;42.688;23.366;2023-04-02T06:35:11;51741.66;;;-145.06;54.71
6530;BME280;3298;42.688;23.366;2023-04-02T06:37:41;51737.56;;;-145.06;53.58
6530;BME280;3298;42.688;23.366;2023-04-02T06:40:27;51792.81;;;-145.06;53.63
6530;BME280;3298;42.688;23.366;2023-04-02T06:42:58;51747.78;;;-145.06;53.48
6530;BME280;3298;42.688;23.366;2023-04-02T06:45:30;51747.78;;;-145.06;53.56
6530;BME280;3298;42.688;23.366;2023-04-02T06:48:00;51753.94;;;-145.06;53.76
6530;BME280;3298;42.688;23.366;2023-04-02T06:50:40;51755.97;;;-145.06;54.46
6530;BME280;3298;42.688;23.366;2023-04-02T06:53:18;51751.88;;;-145.06;53.85
6530;BME280;3298;42.688;23.366;2023-04-02T06:55:49;51760.06;;;-145.06;53.66
6530;BME280;3298;42.688;23.366;2023-04-02T06:58:18;51758.03;;;-145.06;53.06
6530;BME280;3298;42.688;23.366;2023-04-02T07:00:46;51743.69;;;-145.06;53.64
6530;BME280;3298;42.688;23.366;2023-04-02T07:03:15;51745.75;;;-145.06;53.47
6530;BME280;3298;42.688;23.366;2023-04-02T07:05:43;51733.47;;;-145.06;53.50
6530;BME280;3298;42.688;23.366;2023-04-02T07:08:11;51766.22;;;-145.06;53.60
6530;BME280;3298;42.688;23.366;2023-04-02T07:10:38;51811.25;;;-145.06;53.84
6530;BME280;3298;42.688;23.366;2023-04-02T07:13:05;51762.13;;;-145.06;53.79
6530;BME280;3298;42.688;23.366;2023-04-02T07:15:32;51735.50;;;-145.06;53.35
6530;BME280;3298;42.688;23.366;2023-04-02T07:17:59;51770.31;;;-145.06;53.60
6530;BME280;3298;42.688;23.366;2023-04-02T07:20:29;51762.13;;;-145.06;52.74
6530;BME280;3298;42.688;23.366;2023-04-02T07:22:56;51741.66;;;-145.06;52.10
6530;BME280;3298;42.688;23.366;2023-04-02T07:25:25;51776.44;;;-145.06;52.17
6530;BME280;3298;42.688;23.366;2023-04-02T07:27:53;51753.94;;;-145.06;51.78
6530;BME280;3298;42.688;23.366;2023-04-02T07:30:20;51780.53;;;-145.06;51.49
6530;BME280;3298;42.688;23.366;2023-04-02T07:32:47;51766.22;;;-145.06;51.26
6530;BME280;3298;42.688;23.366;2023-04-02T07:35:14;51760.06;;;-145.06;51.28
6530;BME280;3298;42.688;23.366;2023-04-02T07:37:41;51766.22;;;-145.06;51.19
6530;BME280;3298;42.688;23.366;2023-04-02T07:40:14;51784.63;;;-145.06;51.54
6530;BME280;3298;42.688;23.366;2023-04-02T07:42:43;51751.88;;;-145.06;51.25
6530;BME280;3298;42.688;23.366;2023-04-02T07:45:11;51784.63;;;-145.06;50.70
6530;BME280;3298;42.688;23.366;2023-04-02T07:47:37;51792.81;;;-145.06;50.02
6530;BME280;3298;42.688;23.366;2023-04-02T07:50:05;51770.31;;;-145.06;48.95
6530;BME280;3298;42.688;23.366;2023-04-02T07:52:32;51778.50;;;-145.06;49.53
6530;BME280;3298;42.688;23.366;2023-04-02T07:54:59;51753.94;;;-145.06;49.29
6530;BME280;3298;42.688;23.366;2023-04-02T07:57:26;51753.94;;;-145.06;49.32
6530;BME280;3298;42.688;23.366;2023-04-02T07:59:54;51755.97;;;-145.06;49.07
6530;BME280;3298;42.688;23.366;2023-04-02T08:02:22;51776.44;;;-145.06;48.22
6530;BME280;3298;42.688;23.366;2023-04-02T08:04:49;51745.75;;;-145.06;47.82
6530;BME280;3298;42.688;23.366;2023-04-02T08:07:16;51803.06;;;-145.06;48.01
6530;BME280;3298;42.688;23.366;2023-04-02T08:09:44;51762.13;;;-145.06;47.76
6530;BME280;3298;42.688;23.366;2023-04-02T08:12:12;51764.16;;;-145.06;47.49
6530;BME280;3298;42.688;23.366;2023-04-02T08:14:39;51772.34;;;-145.06;45.95
6530;BME280;3298;42.688;23.366;2023-04-02T08:17:07;51786.69;;;-145.06;45.97
6530;BME280;3298;42.688;23.366;2023-04-02T08:19:34;51780.53;;;-145.06;46.25
6530;BME280;3298;42.688;23.366;2023-04-02T08:22:00;51768.25;;;-145.06;45.84
6530;BME280;3298;42.688;23.366;2023-04-02T08:24:27;51758.03;;;-145.06;45.35
6530;BME280;3298;42.688;23.366;2023-04-02T08:26:54;51798.97;;;-145.06;45.92
6530;BME280;3298;42.688;23.366;2023-04-02T08:29:21;51786.69;;;-145.06;46.03
6530;BME280;3298;42.688;23.366;2023-04-02T08:31:48;51766.22;;;-145.06;45.74
6530;BME280;3298;42.688;23.366;2023-04-02T08:34:16;51792.81;;;-145.06;45.72
6530;BME280;3298;42.688;23.366;2023-04-02T08:36:43;51801.00;;;-145.06;45.74
6530;BME280;3298;42.688;23.366;2023-04-02T08:39:10;51782.59;;;-145.06;44.67
6530;BME280;3298;42.688;23.366;2023-04-02T08:41:43;51768.25;;;-145.06;44.59
6530;BME280;3298;42.688;23.366;2023-04-02T08:44:24;51858.31;;;-145.06;44.55
6530;BME280;3298;42.688;23.366;2023-04-02T08:46:58;51798.97;;;-145.06;44.01
6530;BME280;3298;42.688;23.366;2023-04-02T08:49:34;51780.53;;;-145.06;44.17
6530;BME280;3298;42.688;23.366;2023-04-02T08:52:03;51782.59;;;-145.06;44.30
6530;BME280;3298;42.688;23.366;2023-04-02T08:54:31;51786.69;;;-145.06;44.39
6530;BME280;3298;42.688;23.366;2023-04-02T08:57:03;51762.13;;;-145.06;43.00
6530;BME280;3298;42.688;23.366;2023-04-02T08:59:33;51788.72;;;-145.06;43.92
6530;BME280;3298;42.688;23.366;2023-04-02T09:02:12;51776.44;;;-145.06;43.44
6530;BME280;3298;42.688;23.366;2023-04-02T09:04:46;51788.72;;;-145.06;43.73
6530;BME280;3298;42.688;23.366;2023-04-02T09:07:15;51790.78;;;-145.06;42.37
6530;BME280;3298;42.688;23.366;2023-04-02T09:09:45;51790.78;;;-145.06;42.01
6530;BME280;3298;42.688;23.366;2023-04-02T09:12:17;51782.59;;;-145.06;41.96
6530;BME280;3298;42.688;23.366;2023-04-02T09:14:52;51786.69;;;-145.06;42.55
6530;BME280;3298;42.688;23.366;2023-04-02T09:17:22;51786.69;;;-145.06;42.43
6530;BME280;3298;42.688;23.366;2023-04-02T09:19:55;51751.88;;;-145.06;42.70
6530;BME280;3298;42.688;23.366;2023-04-02T09:22:25;51778.50;;;-145.06;42.53
6530;BME280;3298;42.688;23.366;2023-04-02T09:24:53;51782.59;;;-145.06;42.02
6530;BME280;3298;42.688;23.366;2023-04-02T09:27:22;51780.53;;;-145.06;42.23
6530;BME280;3298;42.688;23.366;2023-04-02T09:29:52;51790.78;;;-145.06;42.29
6530;BME280;3298;42.688;23.366;2023-04-02T09:32:39;51801.00;;;-145.06;41.98
6530;BME280;3298;42.688;23.366;2023-04-02T09:35:13;51780.53;;;-145.06;42.22
6530;BME280;3298;42.688;23.366;2023-04-02T09:37:41;51790.78;;;-145.06;42.17
6530;BME280;3298;42.688;23.366;2023-04-02T09:40:16;51776.44;;;-145.06;42.56
6530;BME280;3298;42.688;23.366;2023-04-02T09:42:44;51798.97;;;-145.06;42.40
6530;BME280;3298;42.688;23.366;2023-04-02T09:45:13;51796.91;;;-145.06;42.44
6530;BME280;3298;42.688;23.366;2023-04-02T09:47:40;51801.00;;;-145.06;42.41
6530;BME280;3298;42.688;23.366;2023-04-02T09:50:31;51782.59;;;-145.06;41.92
6530;BME280;3298;42.688;23.366;2023-04-02T09:52:59;51790.78;;;-145.06;41.48
6530;BME280;3298;42.688;23.366;2023-04-02T09:55:42;51807.16;;;-145.06;41.19
6530;BME280;3298;42.688;23.366;2023-04-02T09:58:13;51807.16;;;-145.06;41.63
6530;BME280;3298;42.688;23.366;2023-04-02T10:00:49;51807.16;;;-145.06;41.12
6530;BME280;3298;42.688;23.366;2023-04-02T10:03:22;51835.81;;;-145.06;41.11
6530;BME280;3298;42.688;23.366;2023-04-02T10:06:08;51821.47;;;-145.06;41.16
6530;BME280;3298;42.688;23.366;2023-04-02T10:08:36;51803.06;;;-145.06;41.53
6530;BME280;3298;42.688;23.366;2023-04-02T10:11:07;51782.59;;;-145.06;40.40
6530;BME280;3298;42.688;23.366;2023-04-02T10:13:50;51790.78;;;-145.06;40.03
6530;BME280;3298;42.688;23.366;2023-04-02T10:16:22;51786.69;;;-145.06;39.63
6530;BME280;3298;42.688;23.366;2023-04-02T10:18:54;51798.97;;;-145.06;39.83
6530;BME280;3298;42.688;23.366;2023-04-02T10:21:25;51811.25;;;-145.06;40.68
6530;BME280;3298;42.688;23.366;2023-04-02T10:23:53;51803.06;;;-145.06;40.75
6530;BME280;3298;42.688;23.366;2023-04-02T10:26:46;51786.69;;;-145.06;40.28
6530;BME280;3298;42.688;23.366;2023-04-02T10:29:35;51819.44;;;-145.06;39.77
6530;BME280;3298;42.688;23.366;2023-04-02T10:32:06;51807.16;;;-145.06;39.94
6530;BME280;3298;42.688;23.366;2023-04-02T10:34:42;51809.19;;;-145.06;40.46
6530;BME280;3298;42.688;23.366;2023-04-02T10:37:41;51798.97;;;-145.06;40.10
6530;BME280;3298;42.688;23.366;2023-04-02T10:40:11;51786.69;;;-145.06;40.16
6530;BME280;3298;42.688;23.366;2023-04-02T10:42:46;51807.16;;;-145.06;40.06
6530;BME280;3298;42.688;23.366;2023-04-02T10:45:27;51794.88;;;-145.06;40.67
6530;BME280;3298;42.688;23.366;2023-04-02T10:47:59;51803.06;;;-145.06;40.57
6530;BME280;3298;42.688;23.366;2023-04-02T10:50:34;51784.63;;;-145.06;39.87
6530;BME280;3298;42.688;23.366;2023-04-02T10:53:10;51788.72;;;-145.06;39.88
6530;BME280;3298;42.688;23.366;2023-04-02T10:55:43;51807.16;;;-145.06;39.58
6530;BME280;3298;42.688;23.366;2023-04-02T10:58:20;51803.06;;;-145.06;39.13
6530;BME280;3298;42.688;23.366;2023-04-02T11:00:49;51786.69;;;-145.06;38.84
6530;BME280;3298;42.688;23.366;2023-04-02T11:03:26;51762.13;;;-145.06;38.48
6530;BME280;3298;42.688;23.366;2023-04-02T11:05:57;51762.13;;;-145.06;31.63
6530;BME280;3298;42.688;23.366;2023-04-02T11:08:37;51919.72;;;-145.06;31.52
6530;BME280;3298;42.688;23.366;2023-04-02T11:11:09;51852.19;;;-145.06;34.27
6530;BME280;3298;42.688;23.366;2023-04-02T11:13:48;51866.50;;;-145.06;34.41
6530;BME280;3298;42.688;23.366;2023-04-02T11:16:18;51831.72;;;-145.06;34.66
6530;BME280;3298;42.688;23.366;2023-04-02T11:19:19;51862.41;;;-145.06;35.12
6530;BME280;3298;42.688;23.366;2023-04-02T11:21:48;51858.31;;;-145.06;35.50
6530;BME280;3298;42.688;23.366;2023-04-02T11:24:37;51839.91;;;-145.06;35.56
6530;BME280;3298;42.688;23.366;2023-04-02T11:27:21;51825.56;;;-145.06;35.77
6530;BME280;3298;42.688;23.366;2023-04-02T11:29:52;51829.66;;;-145.06;36.13
6530;BME280;3298;42.688;23.366;2023-04-02T11:32:33;51819.44;;;-145.06;36.15
6530;BME280;3298;42.688;23.366;2023-04-02T11:35:26;51823.53;;;-145.06;37.33
6530;BME280;3298;42.688;23.366;2023-04-02T11:38:02;51803.06;;;-145.06;37.25
6530;BME280;3298;42.688;23.366;2023-04-02T11:40:50;51819.44;;;-145.06;36.62
6530;BME280;3298;42.688;23.366;2023-04-02T11:43:47;51823.53;;;-145.06;36.65
6530;BME280;3298;42.688;23.366;2023-04-02T11:46:41;51813.28;;;-145.06;36.36
6530;BME280;3298;42.688;23.366;2023-04-02T11:52:20;51815.34;;;-145.06;36.08
6530;BME280;3298;42.688;23.366;2023-04-02T11:55:14;51821.47;;;-145.06;35.92
6530;BME280;3298;42.688;23.366;2023-04-02T11:57:53;51839.91;;;-145.06;36.15
6530;BME280;3298;42.688;23.366;2023-04-02T12:00:31;51807.16;;;-145.06;35.52
6530;BME280;3298;42.688;23.366;2023-04-02T12:03:19;51831.72;;;-145.06;35.63
6530;BME280;3298;42.688;23.366;2023-04-02T12:05:55;51827.63;;;-145.06;36.28
6530;BME280;3298;42.688;23.366;2023-04-02T12:08:35;51815.34;;;-145.06;36.63
6530;BME280;3298;42.688;23.366;2023-04-02T12:11:06;51811.25;;;-145.06;37.25
6530;BME280;3298;42.688;23.366;2023-04-02T12:13:53;51788.72;;;-145.06;36.96
6530;BME280;3298;42.688;23.366;2023-04-02T12:16:23;51839.91;;;-145.06;36.55
6530;BME280;3298;42.688;23.366;2023-04-02T12:18:56;51823.53;;;-145.06;36.62
6530;BME280;3298;42.688;23.366;2023-04-02T12:21:25;51827.63;;;-145.06;37.29
6530;BME280;3298;42.688;23.366;2023-04-02T12:23:55;51821.47;;;-145.06;37.52
6530;BME280;3298;42.688;23.366;2023-04-02T12:26:36;51801.00;;;-145.06;38.06
6530;BME280;3298;42.688;23.366;2023-04-02T12:29:25;51805.09;;;-145.06;37.64
6530;BME280;3298;42.688;23.366;2023-04-02T12:31:54;51796.91;;;-145.06;37.09
6530;BME280;3298;42.688;23.366;2023-04-02T12:34:23;51817.38;;;-145.06;36.39
6530;BME280;3298;42.688;23.366;2023-04-02T12:36:52;51831.72;;;-145.06;36.33
6530;BME280;3298;42.688;23.366;2023-04-02T12:39:20;51807.16;;;-145.06;36.33
6530;BME280;3298;42.688;23.366;2023-04-02T12:41:47;51807.16;;;-145.06;36.29
6530;BME280;3298;42.688;23.366;2023-04-02T12:44:15;51807.16;;;-145.06;36.81
6530;BME280;3298;42.688;23.366;2023-04-02T12:46:44;51811.25;;;-145.06;36.16
6530;BME280;3298;42.688;23.366;2023-04-02T12:49:20;51839.91;;;-145.06;36.25
6530;BME280;3298;42.688;23.366;2023-04-02T12:51:49;51805.09;;;-145.06;36.33
6530;BME280;3298;42.688;23.366;2023-04-02T12:54:17;51821.47;;;-145.06;36.43
6530;BME280;3298;42.688;23.366;2023-04-02T12:56:45;51811.25;;;-145.06;36.38
6530;BME280;3298;42.688;23.366;2023-04-02T12:59:34;51792.81;;;-145.06;36.36
6530;BME280;3298;42.688;23.366;2023-04-02T13:02:17;51934.03;;;-145.06;36.32
6530;BME280;3298;42.688;23.366;2023-04-02T13:04:48;51809.19;;;-145.06;36.19
6530;BME280;3298;42.688;23.366;2023-04-02T13:07:16;51821.47;;;-145.06;36.54
6530;BME280;3298;42.688;23.366;2023-04-02T13:09:46;51839.91;;;-145.06;36.41
6530;BME280;3298;42.688;23.366;2023-04-02T13:12:23;51805.09;;;-145.06;36.37
6530;BME280;3298;42.688;23.366;2023-04-02T13:14:52;51803.06;;;-145.06;36.02
6530;BME280;3298;42.688;23.366;2023-04-02T13:17:37;51811.25;;;-145.06;36.41
6530;BME280;3298;42.688;23.366;2023-04-02T13:20:27;51792.81;;;-145.06;36.64
6530;BME280;3298;42.688;23.366;2023-04-02T13:22:54;51801.00;;;-145.06;36.39
6530;BME280;3298;42.688;23.366;2023-04-02T13:25:25;51798.97;;;-145.06;36.10
6530;BME280;3298;42.688;23.366;2023-04-02T13:27:53;51807.16;;;-145.06;36.02
6530;BME280;3298;42.688;23.366;2023-04-02T13:30:22;51803.06;;;-145.06;36.20
6530;BME280;3298;42.688;23.366;2023-04-02T13:32:51;51803.06;;;-145.06;35.70
6530;BME280;3298;42.688;23.366;2023-04-02T13:35:18;51807.16;;;-145.06;35.63
6530;BME280;3298;42.688;23.366;2023-04-02T13:37:45;51825.56;;;-145.06;35.88
6530;BME280;3298;42.688;23.366;2023-04-02T13:40:12;51817.38;;;-145.06;35.38